Time;durP1;ratioP1;P1;durP2;ratioP2;P2;SDS_P1;SDS_P2;PMS_P1;PMS_P2;Temp;Humidity;BMP_temperature;BMP_pressure;BME280_temperature;BME280_humidity;BME280_pressure;Samples;Min_cycle;Max_cycle;Signal;HPM_P1;HPM_P2
2022/02/08 00:00:19;;;;;;;2.60;0.93;;;19.00;44.00;;;;;;6173741;28;20205;-67
2022/02/08 00:03:20;;;;;;;2.70;1.02;;;19.00;44.00;;;;;;6174020;28;20058;-67
2022/02/08 00:06:38;;;;;;;1.67;0.80;;;19.00;44.00;;;;;;6173480;28;20031;-68
2022/02/08 00:09:38;;;;;;;4.10;1.10;;;19.00;44.10;;;;;;6173385;28;20362;-68
2022/02/08 00:12:39;;;;;;;1.45;0.88;;;19.00;44.00;;;;;;6173386;28;20031;-68
2022/02/08 00:15:39;;;;;;;2.58;0.70;;;19.00;44.10;;;;;;6173191;28;20114;-68
2022/02/08 00:18:40;;;;;;;2.63;0.93;;;19.00;44.10;;;;;;6173366;28;20444;-68
2022/02/08 00:21:40;;;;;;;1.58;0.82;;;19.00;44.10;;;;;;6173105;28;20379;-68
2022/02/08 00:24:41;;;;;;;3.13;1.10;;;19.00;44.10;;;;;;6172852;28;20031;-68
2022/02/08 00:27:41;;;;;;;2.60;0.90;;;19.00;44.10;;;;;;6172984;28;20328;-67
2022/02/08 00:30:42;;;;;;;1.45;0.90;;;19.00;44.10;;;;;;6173111;28;20081;-67
2022/02/08 00:33:42;;;;;;;0.93;0.60;;;19.00;44.10;;;;;;6158102;28;20051;-65
2022/02/08 00:36:43;;;;;;;2.72;1.02;;;19.00;44.10;;;;;;6149320;28;20031;-67
2022/02/08 00:39:44;;;;;;;2.58;1.00;;;19.00;44.10;;;;;;6148819;28;20105;-67
2022/02/08 00:42:44;;;;;;;2.03;1.00;;;19.00;44.10;;;;;;6148513;28;20058;-67
2022/02/08 00:45:55;;;;;;;1.40;0.70;;;19.00;44.20;;;;;;6148570;29;20032;-67
2022/02/08 00:48:59;;;;;;;2.17;0.80;;;19.00;44.10;;;;;;6148844;29;20024;-67
2022/02/08 00:52:07;;;;;;;2.17;0.80;;;19.00;44.10;;;;;;6148480;29;20102;-68
2022/02/08 00:55:09;;;;;;;1.92;0.93;;;19.00;44.10;;;;;;6148554;29;20348;-67
2022/02/08 00:58:10;;;;;;;2.20;0.75;;;19.00;44.20;;;;;;6148131;29;20035;-67
2022/02/08 01:01:12;;;;;;;2.28;1.00;;;19.00;44.30;;;;;;6148895;29;20387;-67
2022/02/08 01:04:13;;;;;;;2.80;1.10;;;19.00;44.20;;;;;;6148345;29;20313;-67
2022/02/08 01:07:13;;;;;;;2.65;0.70;;;19.00;44.20;;;;;;6163040;28;20065;-68
2022/02/08 01:10:17;;;;;;;2.65;1.15;;;19.00;44.20;;;;;;6172294;28;20026;-67
2022/02/08 01:13:18;;;;;;;2.60;0.85;;;19.00;44.20;;;;;;6172373;28;20031;-68
2022/02/08 01:16:18;;;;;;;1.75;0.93;;;19.00;44.30;;;;;;6172042;28;20123;-67
2022/02/08 01:19:22;;;;;;;1.52;0.73;;;19.00;44.30;;;;;;6172069;28;20031;-67
2022/02/08 01:22:22;;;;;;;2.40;0.80;;;19.00;44.30;;;;;;6171859;28;20019;-67
2022/02/08 01:25:30;;;;;;;1.73;0.80;;;19.00;44.30;;;;;;6171930;28;20049;-68
2022/02/08 01:31:38;;;;;;;2.08;0.90;;;19.00;44.30;;;;;;6171932;28;20395;-67
2022/02/08 01:34:53;;;;;;;1.85;0.88;;;19.00;44.30;;;;;;6149360;28;20482;-67
2022/02/08 01:38:09;;;;;;;2.88;0.90;;;19.00;44.40;;;;;;6147496;28;20086;-68
2022/02/08 01:41:33;;;;;;;;;;;19.00;44.30;;;;;;6148124;28;20031;-68
2022/02/08 01:44:43;;;;;;;1.50;0.80;;;19.00;44.40;;;;;;6147124;29;19911;-68
2022/02/08 01:48:00;;;;;;;1.40;0.70;;;19.00;44.30;;;;;;6147600;29;20027;-67
2022/02/08 01:51:00;;;;;;;2.30;0.85;;;19.00;44.40;;;;;;6147303;29;20035;-68
2022/02/08 01:54:01;;;;;;;2.78;1.00;;;19.00;44.40;;;;;;6146880;29;20129;-67
2022/02/08 01:57:01;;;;;;;1.85;0.93;;;19.00;44.40;;;;;;6147356;29;20038;-68
2022/02/08 02:00:05;;;;;;;1.77;0.82;;;19.00;44.40;;;;;;6147547;29;20027;-68
2022/02/08 02:03:06;;;;;;;3.08;1.17;;;19.00;44.40;;;;;;6147255;29;20633;-67
2022/02/08 02:06:06;;;;;;;2.08;0.70;;;19.00;44.40;;;;;;6153288;28;20030;-68
2022/02/08 02:09:07;;;;;;;2.00;0.90;;;19.00;44.40;;;;;;6171158;28;20045;-66
2022/02/08 02:12:08;;;;;;;1.45;0.73;;;19.00;44.40;;;;;;6170698;28;20023;-66
2022/02/08 02:15:08;;;;;;;2.88;0.93;;;19.00;44.40;;;;;;6170659;28;20019;-68
2022/02/08 02:18:09;;;;;;;2.70;0.80;;;19.00;44.50;;;;;;6170294;28;20150;-66
2022/02/08 02:21:09;;;;;;;2.10;0.80;;;19.00;44.50;;;;;;6170831;28;20038;-66
2022/02/08 02:24:10;;;;;;;1.85;0.65;;;19.00;44.50;;;;;;6170197;28;20030;-68
2022/02/08 02:27:11;;;;;;;1.38;0.73;;;19.00;44.60;;;;;;6170532;28;20386;-67
2022/02/08 02:30:11;;;;;;;2.20;0.90;;;19.00;44.60;;;;;;6170818;28;20023;-68
2022/02/08 02:33:13;;;;;;;1.75;0.90;;;19.00;44.50;;;;;;6159492;28;20028;-68
2022/02/08 02:36:13;;;;;;;2.28;0.80;;;19.00;44.50;;;;;;6146380;28;20494;-66
2022/02/08 02:39:15;;;;;;;1.65;0.65;;;19.00;44.50;;;;;;6146544;28;20027;-66
2022/02/08 02:42:18;;;;;;;2.55;0.82;;;19.00;45.20;;;;;;6157700;28;20035;-67
2022/02/08 02:45:22;;;;;;;2.67;1.00;;;19.00;44.50;;;;;;6169991;28;20134;-67
2022/02/08 02:48:23;;;;;;;1.20;0.60;;;19.00;44.60;;;;;;6170482;28;20031;-67
2022/02/08 02:51:25;;;;;;;1.52;0.65;;;19.00;44.50;;;;;;6169987;28;20045;-68
2022/02/08 02:54:25;;;;;;;1.20;0.55;;;19.00;44.50;;;;;;6169583;28;20043;-67
2022/02/08 02:57:27;;;;;;;1.88;0.65;;;19.00;44.50;;;;;;6170108;28;20034;-68
2022/02/08 03:00:46;;;;;;;1.92;0.80;;;19.00;44.50;;;;;;6170052;28;20486;-67
2022/02/08 03:20:13;;;;;;;1.83;0.63;;;19.00;44.60;;;;;;6169877;28;20027;-67
2022/02/08 03:23:14;;;;;;;2.08;0.70;;;19.00;44.60;;;;;;6169704;28;20053;-68
2022/02/08 03:26:15;;;;;;;1.67;0.68;;;19.00;44.60;;;;;;6169503;28;20065;-67
2022/02/08 03:29:15;;;;;;;1.42;0.60;;;19.00;44.60;;;;;;6170116;28;20470;-67
2022/02/08 03:32:18;;;;;;;2.75;0.85;;;19.00;44.60;;;;;;6171220;28;20053;-68
2022/02/08 03:35:19;;;;;;;2.05;0.90;;;19.00;44.60;;;;;;6160085;28;20548;-68
2022/02/08 03:38:26;;;;;;;1.27;0.70;;;19.00;44.70;;;;;;6174260;28;20034;-67
2022/02/08 03:41:35;;;;;;;1.85;0.80;;;19.00;44.60;;;;;;6167856;28;20027;-68
2022/02/08 03:44:35;;;;;;;2.10;0.77;;;19.00;44.60;;;;;;6149930;29;20118;-67
2022/02/08 03:47:37;;;;;;;1.88;0.70;;;19.00;44.70;;;;;;6150120;29;20069;-67
2022/02/08 03:50:37;;;;;;;2.15;0.80;;;19.00;44.70;;;;;;6150072;29;20039;-67
2022/02/08 03:53:43;;;;;;;2.65;1.15;;;19.00;44.70;;;;;;6149746;29;20063;-68
2022/02/08 03:56:43;;;;;;;;;;;19.00;44.60;;;;;;6150188;29;20039;-68
2022/02/08 03:59:44;;;;;;;2.30;0.60;;;19.00;44.70;;;;;;6149874;28;19995;-66
2022/02/08 04:02:49;;;;;;;1.52;0.63;;;19.00;44.70;;;;;;6149733;29;20039;-68
2022/02/08 04:05:52;;;;;;;1.13;0.57;;;19.00;44.70;;;;;;6153849;28;20044;-69
2022/02/08 04:08:55;;;;;;;2.38;1.00;;;19.00;44.70;;;;;;6173764;28;20041;-68
2022/02/08 04:41:26;;;;;;;2.50;0.70;;;19.00;44.80;;;;;;6148022;28;20054;-67
2022/02/08 04:47:40;;;;;;;1.73;0.60;;;19.00;44.90;;;;;;6148627;29;20276;-68
2022/02/08 04:50:41;;;;;;;2.05;0.85;;;18.90;44.70;;;;;;6148869;29;20038;-67
2022/02/08 04:53:53;;;;;;;0.98;0.50;;;19.00;44.80;;;;;;6148691;29;20498;-68
2022/02/08 05:28:03;;;;;;;1.75;0.60;;;19.00;44.80;;;;;;6171519;28;20517;-67
2022/02/08 05:44:14;;;;;;;1.02;0.50;;;19.00;44.70;;;;;;6147699;29;20043;-68
2022/02/08 05:47:08;;;;;;;2.47;0.75;;;19.00;44.80;;;;;;6147200;28;20078;-68
2022/02/08 05:50:23;;;;;;;1.80;0.60;;;19.00;44.70;;;;;;6147446;28;20031;-67
2022/02/08 05:56:27;;;;;;;1.83;0.77;;;19.00;44.70;;;;;;6147723;29;20110;-67
2022/02/08 05:59:27;;;;;;;1.88;0.70;;;19.00;44.70;;;;;;6147061;28;20031;-67
2022/02/08 06:02:28;;;;;;;2.08;0.70;;;19.00;44.80;;;;;;6147303;28;20035;-68
2022/02/08 06:05:29;;;;;;;1.48;0.77;;;19.00;44.70;;;;;;6148544;28;20062;-68
2022/02/08 06:08:30;;;;;;;1.83;0.80;;;19.00;44.60;;;;;;6170704;28;20531;-67
2022/02/08 06:11:34;;;;;;;1.30;0.60;;;19.00;44.70;;;;;;6170712;28;20019;-68
2022/02/08 06:14:36;;;;;;;2.97;0.60;;;19.00;44.70;;;;;;6170878;28;20019;-67
2022/02/08 06:17:36;;;;;;;1.60;0.50;;;19.00;44.60;;;;;;6170767;28;20033;-68
2022/02/08 06:20:37;;;;;;;1.42;0.60;;;19.00;44.60;;;;;;6170526;28;20022;-67
2022/02/08 06:23:38;;;;;;;1.17;0.60;;;19.00;44.60;;;;;;6170741;28;20035;-67
2022/02/08 06:26:38;;;;;;;1.75;0.80;;;19.00;44.60;;;;;;6170326;28;20106;-67
2022/02/08 06:29:39;;;;;;;1.83;0.70;;;19.00;45.40;;;;;;6170321;28;20138;-68
2022/02/08 06:32:40;;;;;;;1.45;0.55;;;19.00;44.60;;;;;;6155029;28;20053;-67
2022/02/08 06:35:40;;;;;;;2.92;0.90;;;19.00;44.60;;;;;;6167852;28;20061;-68
2022/02/08 06:38:41;;;;;;;4.50;0.98;;;19.00;44.60;;;;;;6158126;28;20074;-67
2022/02/08 06:41:41;;;;;;;1.98;0.75;;;19.00;44.60;;;;;;6159390;28;20031;-67
2022/02/08 06:44:42;;;;;;;2.85;0.77;;;19.00;44.70;;;;;;6178276;28;20715;-66
2022/02/08 06:47:49;;;;;;;3.55;0.85;;;19.00;44.90;;;;;;6192999;28;20038;-67
2022/02/08 06:50:52;;;;;;;2.17;0.60;;;19.00;44.90;;;;;;6171110;28;20057;-67
2022/02/08 06:53:52;;;;;;;1.88;0.80;;;19.00;44.90;;;;;;6168311;28;20133;-67
2022/02/08 06:56:53;;;;;;;2.80;0.90;;;19.00;44.90;;;;;;6169140;28;20027;-68
2022/02/08 07:00:00;;;;;;;2.92;0.80;;;19.00;45.00;;;;;;6162806;28;20039;-67
2022/02/08 07:03:10;;;;;;;2.00;1.00;;;19.00;45.00;;;;;;6170019;28;20023;-67
2022/02/08 07:06:10;;;;;;;2.75;1.05;;;19.00;45.10;;;;;;6146213;28;20128;-68
2022/02/08 07:09:12;;;;;;;1.17;0.50;;;19.00;45.10;;;;;;6161168;28;20035;-67
2022/02/08 07:12:13;;;;;;;2.17;0.40;;;19.00;45.10;;;;;;6170456;28;20035;-68
2022/02/08 07:15:15;;;;;;;1.95;0.80;;;19.00;45.10;;;;;;6170193;28;20084;-68
2022/02/08 07:18:15;;;;;;;2.55;1.00;;;19.00;45.10;;;;;;6169856;28;20102;-68
2022/02/08 07:21:16;;;;;;;2.30;0.90;;;19.00;45.10;;;;;;6169846;28;20023;-67
2022/02/08 07:24:16;;;;;;;2.95;0.70;;;19.00;45.80;;;;;;6169997;28;20041;-68
2022/02/08 07:27:17;;;;;;;2.58;1.02;;;19.00;45.20;;;;;;6170156;28;20046;-67
2022/02/08 07:30:17;;;;;;;2.22;0.73;;;19.00;45.20;;;;;;6170114;28;20030;-68
2022/02/08 07:33:18;;;;;;;2.03;0.88;;;19.00;45.20;;;;;;6170426;28;20019;-68
2022/02/08 07:39:26;;;;;;;1.65;0.80;;;19.00;45.30;;;;;;6169680;28;20037;-67
2022/02/08 07:42:26;;;;;;;1.08;0.60;;;19.00;45.30;;;;;;6154776;28;20031;-67
2022/02/08 07:45:27;;;;;;;1.60;0.68;;;19.00;45.30;;;;;;6146585;29;20614;-65
2022/02/08 07:48:28;;;;;;;3.80;1.00;;;19.00;45.30;;;;;;6131003;28;20489;-66
2022/02/08 07:51:29;;;;;;;2.45;0.80;;;19.00;45.30;;;;;;6189493;28;20145;-67
2022/02/08 07:54:29;;;;;;;2.00;0.70;;;19.00;45.40;;;;;;6195580;28;20082;-67
2022/02/08 07:57:30;;;;;;;1.73;0.70;;;19.10;45.10;;;;;;6196133;28;20027;-68
2022/02/08 08:00:30;;;;;;;2.28;0.80;;;19.10;45.00;;;;;;6195621;28;20085;-67
2022/02/08 08:03:31;;;;;;;6.03;0.90;;;19.10;44.80;;;;;;6195616;28;20485;-68
2022/02/08 08:06:31;;;;;;;4.05;0.60;;;19.10;44.70;;;;;;6185511;28;20035;-68
2022/02/08 08:09:32;;;;;;;1.52;0.88;;;19.20;44.80;;;;;;6171104;28;20035;-67
2022/02/08 08:12:34;;;;;;;3.78;0.68;;;19.20;44.80;;;;;;6169507;28;20019;-68
2022/02/08 08:15:41;;;;;;;1.95;0.70;;;19.20;44.90;;;;;;6171173;28;20037;-68
2022/02/08 08:18:58;;;;;;;2.10;0.70;;;19.20;45.10;;;;;;6174958;28;20027;-68
2022/02/08 08:21:58;;;;;;;2.33;0.80;;;19.10;45.00;;;;;;6174875;28;20039;-68
2022/02/08 08:25:01;;;;;;;3.28;0.88;;;19.10;45.10;;;;;;6175379;28;20035;-68
2022/02/08 08:28:03;;;;;;;1.50;0.50;;;19.10;45.20;;;;;;6173941;28;20027;-68
2022/02/08 08:31:04;;;;;;;2.00;0.80;;;19.10;45.20;;;;;;6174909;28;20035;-68
2022/02/08 08:34:04;;;;;;;2.25;0.75;;;19.10;45.30;;;;;;6175062;28;20107;-68
2022/02/08 08:37:06;;;;;;;2.05;0.80;;;19.10;45.30;;;;;;6175744;28;20022;-68
2022/02/08 08:40:18;;;;;;;3.00;1.00;;;19.10;45.30;;;;;;6174919;28;20022;-67
2022/02/08 08:52:58;;;;;;;3.40;0.90;;;19.10;45.30;;;;;;6164956;28;20034;-68
2022/02/08 08:55:59;;;;;;;1.23;0.60;;;19.10;45.30;;;;;;6150304;28;20062;-68
2022/02/08 08:59:00;;;;;;;2.38;0.88;;;19.10;45.40;;;;;;6150308;28;20031;-68
2022/02/08 09:02:00;;;;;;;2.85;0.80;;;19.10;45.30;;;;;;6148563;28;20039;-67
2022/02/08 09:05:04;;;;;;;2.05;0.77;;;19.10;45.40;;;;;;6148919;28;20037;-68
2022/02/08 09:08:05;;;;;;;1.38;0.63;;;19.10;45.40;;;;;;6171454;28;20030;-67
2022/02/08 09:11:14;;;;;;;3.53;0.90;;;19.10;45.50;;;;;;6172193;28;20402;-67
2022/02/08 09:14:15;;;;;;;1.55;0.70;;;19.10;45.50;;;;;;6172683;28;20054;-67
2022/02/08 09:20:42;;;;;;;0.75;0.50;;;19.10;45.60;;;;;;6172707;28;20034;-67
2022/02/08 09:23:58;;;;;;;1.92;0.80;;;19.10;45.60;;;;;;6172128;28;20031;-67
2022/02/08 09:27:09;;;;;;;5.35;1.02;;;19.10;45.60;;;;;;6171834;28;20038;-68
2022/02/08 09:30:17;;;;;;;1.08;0.63;;;19.10;45.60;;;;;;6172244;28;20038;-67
2022/02/08 09:33:17;;;;;;;4.03;0.68;;;19.10;45.60;;;;;;6171661;28;20368;-67
2022/02/08 09:36:24;;;;;;;1.63;0.70;;;19.10;45.70;;;;;;6153899;28;20031;-68
2022/02/08 09:39:24;;;;;;;1.42;0.90;;;19.10;45.70;;;;;;6159592;28;20046;-68
2022/02/08 09:42:25;;;;;;;2.17;0.70;;;19.10;45.70;;;;;;6174364;28;20070;-68
2022/02/08 09:45:27;;;;;;;1.63;0.73;;;19.10;45.70;;;;;;6149221;28;20046;-68
2022/02/08 09:48:38;;;;;;;1.52;0.65;;;19.10;45.80;;;;;;6148949;28;20106;-67
2022/02/08 09:51:44;;;;;;;3.30;0.90;;;19.10;45.80;;;;;;6148930;28;20514;-67
2022/02/08 09:54:45;;;;;;;2.05;0.70;;;19.10;45.80;;;;;;6148540;28;20117;-68
2022/02/08 09:57:47;;;;;;;1.88;0.85;;;19.10;45.80;;;;;;6148929;28;20030;-66
2022/02/08 10:00:48;;;;;;;1.92;0.68;;;19.10;45.80;;;;;;6162667;28;20078;-68
2022/02/08 10:03:54;;;;;;;4.40;0.80;;;19.10;45.80;;;;;;6172489;28;20371;-66
2022/02/08 10:06:54;;;;;;;2.55;1.20;;;19.10;45.90;;;;;;6172345;28;20038;-67
2022/02/08 10:09:55;;;;;;;2.80;0.80;;;19.10;45.90;;;;;;6172297;28;20065;-66
2022/02/08 10:22:38;;;;;;;2.50;0.70;;;19.10;45.90;;;;;;6162478;28;20066;-67
2022/02/08 10:25:48;;;;;;;1.73;0.73;;;19.10;45.90;;;;;;6148020;28;20034;-68
2022/02/08 10:28:59;;;;;;;3.72;0.80;;;19.10;45.90;;;;;;6147395;28;20045;-67
2022/02/08 10:38:49;;;;;;;2.25;0.82;;;19.10;46.10;;;;;;6170116;28;20113;-67
2022/02/08 10:41:50;;;;;;;1.92;0.77;;;19.10;46.10;;;;;;6170619;28;20031;-67
2022/02/08 10:44:51;;;;;;;1.80;0.70;;;19.10;46.10;;;;;;6171401;28;20036;-67
2022/02/08 10:47:57;;;;;;;1.95;0.68;;;19.10;46.10;;;;;;6171409;28;20090;-66
2022/02/08 10:51:00;;;;;;;1.63;0.80;;;19.10;46.10;;;;;;6169225;28;20470;-68
2022/02/08 10:54:08;;;;;;;1.23;0.70;;;19.10;46.10;;;;;;6160529;28;20058;-67
2022/02/08 10:57:22;;;;;;;0.68;0.50;;;19.10;46.20;;;;;;6171375;28;20019;-67
2022/02/08 11:00:33;;;;;;;1.17;0.63;;;19.10;46.20;;;;;;6171082;28;20394;-67
2022/02/08 11:03:48;;;;;;;1.15;0.55;;;19.10;46.10;;;;;;6171321;28;20477;-68
2022/02/08 11:06:59;;;;;;;1.88;0.88;;;19.10;46.10;;;;;;6171142;28;20035;-67
2022/02/08 11:16:28;;;;;;;1.30;0.65;;;19.10;46.20;;;;;;6171928;28;20090;-68
2022/02/08 11:19:54;;;;;;;1.58;0.70;;;19.10;46.20;;;;;;6171379;28;20023;-68
2022/02/08 11:22:59;;;;;;;1.67;0.65;;;19.10;46.90;;;;;;6171299;28;20061;-67
2022/02/08 11:26:01;;;;;;;;;;;19.00;46.10;;;;;;6171620;28;20043;-67
2022/02/08 11:29:34;;;;;;;1.42;0.90;;;19.10;46.20;;;;;;6171125;28;19933;-67
2022/02/08 11:32:56;;;;;;;2.15;0.63;;;19.10;46.30;;;;;;6165011;28;20118;-67
2022/02/08 11:55:30;;;;;;;0.93;0.60;;;19.10;46.30;;;;;;6152710;29;20062;-68
2022/02/08 12:08:18;;;;;;;1.00;0.60;;;19.10;46.30;;;;;;6175450;28;20513;-67
2022/02/08 12:11:39;;;;;;;0.63;0.55;;;19.10;46.30;;;;;;6175869;28;20023;-68
2022/02/08 12:31:29;;;;;;;2.55;1.15;;;19.10;46.30;;;;;;6175691;28;20042;-67
2022/02/08 13:00:51;;;;;;;1.10;0.60;;;19.10;46.30;;;;;;6174959;28;20041;-68
2022/02/08 13:18:27;;;;;;;0.77;0.52;;;19.00;46.30;;;;;;6174716;28;20030;-68
2022/02/08 14:10:24;;;;;;;1.05;0.70;;;19.00;46.60;;;;;;6148003;29;20031;-67
2022/02/08 14:17:28;;;;;;;2.60;0.68;;;19.00;46.60;;;;;;6171038;28;20038;-67
2022/02/08 14:30:06;;;;;;;1.83;0.70;;;19.00;46.70;;;;;;6171331;28;20043;-67
2022/02/08 14:33:29;;;;;;;1.77;0.70;;;19.00;46.70;;;;;;6169320;28;20031;-67
2022/02/08 14:36:53;;;;;;;0.80;0.60;;;19.00;46.70;;;;;;6147116;28;20063;-67
2022/02/08 14:57:35;;;;;;;1.90;0.80;;;19.00;46.80;;;;;;6167040;28;20062;-67
2022/02/08 15:06:46;;;;;;;2.88;0.70;;;19.00;46.70;;;;;;6170819;28;20401;-68
2022/02/08 15:09:52;;;;;;;1.15;0.68;;;19.10;46.80;;;;;;6170423;28;20228;-68
2022/02/08 15:12:56;;;;;;;0.93;0.70;;;19.10;46.80;;;;;;6170855;28;20026;-68
2022/02/08 15:18:57;;;;;;;1.05;0.70;;;19.10;46.80;;;;;;6171207;28;20023;-68
2022/02/08 15:22:00;;;;;;;2.33;0.70;;;19.00;46.80;;;;;;6171301;28;20054;-67
2022/02/08 15:25:01;;;;;;;0.88;0.60;;;19.10;46.80;;;;;;6169648;28;20027;-68
2022/02/08 15:28:04;;;;;;;1.90;0.90;;;19.10;46.80;;;;;;6175432;28;20023;-68
2022/02/08 15:31:04;;;;;;;2.10;0.77;;;19.10;46.80;;;;;;6177517;28;20039;-67
2022/02/08 15:34:05;;;;;;;2.90;0.90;;;19.10;46.90;;;;;;6163772;28;20462;-67
2022/02/08 15:37:05;;;;;;;1.63;0.63;;;19.10;46.80;;;;;;6151411;28;20102;-68
2022/02/08 15:40:09;;;;;;;2.08;1.02;;;19.10;46.90;;;;;;6166287;28;20055;-67
2022/02/08 15:43:10;;;;;;;1.45;0.60;;;19.10;46.90;;;;;;6176028;28;20049;-67
2022/02/08 15:46:20;;;;;;;1.35;0.70;;;19.10;46.90;;;;;;6174852;28;20041;-68
2022/02/08 15:49:21;;;;;;;1.08;0.60;;;19.10;46.90;;;;;;6175131;28;20031;-68
2022/02/08 16:08:20;;;;;;;2.83;0.90;;;19.00;46.90;;;;;;6175281;28;20089;-68
2022/02/08 16:11:42;;;;;;;3.70;0.98;;;19.00;47.00;;;;;;6174583;28;20035;-67
2022/02/08 16:18:17;;;;;;;2.10;0.90;;;19.10;46.90;;;;;;6174866;28;20030;-68
2022/02/08 16:45:59;;;;;;;3.60;0.82;;;19.10;47.00;;;;;;6166276;28;20082;-66
2022/02/08 16:52:03;;;;;;;1.48;0.70;;;19.10;47.10;;;;;;6173809;28;20037;-67
2022/02/08 16:57:15;;;;;;;2.00;0.80;;;19.00;47.10;;;;;;6173954;28;20174;-66
2022/02/08 17:00:18;;;;;;;2.90;0.73;;;19.00;47.80;;;;;;6173925;28;20026;-66
2022/02/08 17:03:24;;;;;;;0.82;0.60;;;19.00;47.10;;;;;;6163715;28;20046;-67
2022/02/08 17:06:27;;;;;;;1.85;0.70;;;19.10;47.20;;;;;;6173790;28;20333;-67
2022/02/08 17:12:55;;;;;;;4.57;1.05;;;19.10;47.20;;;;;;6160072;28;20274;-67
2022/02/08 17:16:17;;;;;;;5.07;0.80;;;19.10;47.30;;;;;;6195852;28;20033;-67
2022/02/08 17:19:56;;;;;;;1.55;0.75;;;19.10;47.30;;;;;;6161989;28;20367;-67
2022/02/08 17:46:20;;;;;;;1.33;0.60;;;19.10;47.30;;;;;;6170112;28;20030;-67
2022/02/08 17:49:21;;;;;;;2.85;0.80;;;19.10;47.40;;;;;;6157529;28;20023;-66
2022/02/08 17:52:22;;;;;;;2.03;0.70;;;19.10;47.50;;;;;;6170422;28;20062;-66
2022/02/08 17:55:23;;;;;;;1.77;0.70;;;19.10;47.50;;;;;;6170051;28;20050;-67
2022/02/08 17:58:24;;;;;;;6.30;0.80;;;19.10;47.40;;;;;;6170578;28;20090;-66
2022/02/08 18:01:25;;;;;;;4.30;0.70;;;19.10;47.50;;;;;;6164286;28;20027;-66
2022/02/08 18:04:25;;;;;;;4.68;0.88;;;19.20;47.50;;;;;;6168495;28;20023;-66
2022/02/08 18:07:27;;;;;;;11.70;0.70;;;19.20;47.60;;;;;;6170890;28;20490;-66
2022/02/08 18:10:29;;;;;;;6.28;0.80;;;19.20;47.50;;;;;;6169808;28;20485;-67
2022/02/08 18:13:33;;;;;;;7.30;0.80;;;19.20;47.40;;;;;;6170241;28;20027;-66
2022/02/08 18:16:35;;;;;;;1.05;0.50;;;19.20;47.60;;;;;;6169716;28;20051;-66
2022/02/08 18:19:39;;;;;;;1.80;0.70;;;19.20;47.60;;;;;;6170505;28;20106;-67
2022/02/08 18:27:04;;;;;;;;;;;19.20;47.50;;;;;;6170275;28;20053;-66
2022/02/08 18:54:51;;;;;;;1.50;0.50;;;19.20;47.60;;;;;;6169247;28;20031;-65
2022/02/08 18:56:15;;;;;;;2.45;0.40;;;19.20;47.60;;;;;;6169249;28;20055;-67
2022/02/08 19:12:34;;;;;;;0.35;0.35;;;19.20;47.70;;;;;;6168179;28;19906;-66
2022/02/08 19:21:57;;;;;;;1.65;0.60;;;19.20;47.80;;;;;;6168362;28;20033;-67
2022/02/08 19:24:58;;;;;;;0.80;0.40;;;19.20;47.70;;;;;;6168866;28;20027;-66
2022/02/08 19:28:00;;;;;;;2.20;0.40;;;19.20;47.70;;;;;;6167341;28;20092;-66
2022/02/08 19:31:00;;;;;;;2.05;0.52;;;19.20;47.80;;;;;;6169130;28;20031;-66
2022/02/08 19:34:02;;;;;;;0.75;0.50;;;19.20;47.80;;;;;;6168915;28;20038;-66
2022/02/08 19:37:07;;;;;;;0.57;0.50;;;19.20;47.80;;;;;;6168641;28;20033;-67
2022/02/08 19:40:08;;;;;;;1.03;0.50;;;19.10;47.80;;;;;;6169513;28;20031;-67
2022/02/08 19:43:09;;;;;;;1.23;0.50;;;19.20;47.80;;;;;;6149596;28;20270;-66
2022/02/08 19:46:10;;;;;;;0.85;0.50;;;19.20;47.80;;;;;;6145146;29;20032;-66
2022/02/08 19:49:12;;;;;;;1.83;0.40;;;19.20;47.80;;;;;;6145611;29;20459;-67
2022/02/08 19:52:13;;;;;;;0.88;0.40;;;19.20;47.80;;;;;;6145371;29;20037;-67
2022/02/08 19:55:28;;;;;;;1.20;0.30;;;19.20;47.90;;;;;;6145315;29;20059;-66
2022/02/08 19:58:30;;;;;;;0.50;0.47;;;19.20;47.90;;;;;;6145253;29;20027;-67
2022/02/08 20:01:32;;;;;;;0.85;0.55;;;19.10;47.80;;;;;;6145749;29;20047;-67
2022/02/08 20:04:34;;;;;;;0.82;0.30;;;19.20;47.90;;;;;;6145268;29;20074;-67
2022/02/08 20:07:34;;;;;;;0.93;0.40;;;19.10;47.80;;;;;;6163001;28;20417;-66
2022/02/08 20:10:35;;;;;;;0.68;0.45;;;19.20;47.90;;;;;;6169301;28;20050;-67
2022/02/08 20:13:36;;;;;;;0.73;0.47;;;19.10;47.80;;;;;;6173441;28;20106;-67
2022/02/08 20:16:37;;;;;;;0.40;0.35;;;19.20;48.00;;;;;;6173142;28;20085;-67
2022/02/08 20:19:37;;;;;;;0.57;0.30;;;19.20;47.90;;;;;;6173641;28;20027;-67
2022/02/08 20:22:45;;;;;;;1.60;0.60;;;19.10;47.90;;;;;;6173624;28;20075;-67
2022/02/08 20:25:51;;;;;;;0.60;0.30;;;19.10;47.90;;;;;;6173421;28;20030;-67
2022/02/08 20:28:56;;;;;;;1.17;0.45;;;19.10;47.90;;;;;;6173719;28;20053;-66
2022/02/08 20:31:58;;;;;;;0.50;0.30;;;19.10;47.90;;;;;;6172781;28;20027;-67
2022/02/08 20:34:58;;;;;;;0.85;0.52;;;19.10;48.10;;;;;;6149399;28;20031;-66
2022/02/08 20:37:59;;;;;;;0.90;0.50;;;19.20;48.00;;;;;;6149003;28;20038;-67
2022/02/08 20:41:00;;;;;;;0.68;0.40;;;19.10;47.90;;;;;;6148983;28;20015;-67
2022/02/08 20:44:02;;;;;;;0.38;0.30;;;19.10;48.00;;;;;;6149186;29;20510;-67
2022/02/08 20:47:17;;;;;;;0.55;0.40;;;19.10;48.00;;;;;;6149084;29;20035;-67
2022/02/08 20:50:20;;;;;;;0.63;0.32;;;19.10;48.00;;;;;;6148818;29;20110;-67
2022/02/08 20:53:37;;;;;;;0.68;0.45;;;19.10;48.00;;;;;;6149126;29;20058;-65
2022/02/08 20:56:38;;;;;;;1.10;0.50;;;19.10;47.90;;;;;;6149259;29;20114;-65
2022/02/08 20:59:39;;;;;;;0.60;0.50;;;19.10;48.00;;;;;;6148765;29;20034;-65
2022/02/08 21:02:53;;;;;;;1.25;0.40;;;19.10;48.00;;;;;;6148740;29;20511;-66
2022/02/08 21:06:10;;;;;;;0.60;0.20;;;19.10;48.00;;;;;;6169920;28;20030;-67
2022/02/08 21:09:13;;;;;;;0.20;0.20;;;19.10;48.00;;;;;;6172412;28;20385;-66
2022/02/08 21:12:28;;;;;;;0.75;0.30;;;19.10;48.00;;;;;;6172403;28;20023;-66
2022/02/08 21:15:30;;;;;;;0.30;0.30;;;19.10;48.00;;;;;;6172248;28;20470;-67
2022/02/08 21:18:30;;;;;;;0.30;0.30;;;19.10;48.00;;;;;;6172376;28;20022;-67
2022/02/08 21:21:31;;;;;;;0.68;0.30;;;19.10;48.10;;;;;;6172543;28;20031;-67
2022/02/08 21:24:33;;;;;;;0.30;0.30;;;19.10;48.10;;;;;;6171981;28;20670;-66
2022/02/08 21:27:36;;;;;;;0.40;0.30;;;19.10;48.00;;;;;;6171886;28;20038;-66
2022/02/08 21:47:25;;;;;;;0.32;0.30;;;19.10;48.20;;;;;;6147181;29;20039;-67
2022/02/08 21:53:32;;;;;;;1.05;0.40;;;19.10;48.10;;;;;;6171711;28;20156;-67
2022/02/08 21:56:32;;;;;;;0.68;0.20;;;19.10;48.10;;;;;;6171763;28;20022;-67
2022/02/08 21:59:35;;;;;;;0.32;0.30;;;19.10;48.20;;;;;;6171397;28;20038;-67
2022/02/08 22:02:36;;;;;;;0.20;0.20;;;19.10;48.10;;;;;;6171606;28;20035;-66
2022/02/08 22:05:37;;;;;;;0.38;0.30;;;19.10;48.10;;;;;;6170621;28;20312;-67
2022/02/08 22:08:40;;;;;;;0.30;0.30;;;19.10;48.20;;;;;;6171103;28;20089;-66
2022/02/08 22:21:35;;;;;;;0.43;0.40;;;19.10;48.20;;;;;;6159346;28;20386;-67
2022/02/08 22:24:51;;;;;;;0.50;0.20;;;19.10;48.20;;;;;;6146653;28;20042;-67
2022/02/08 22:28:00;;;;;;;0.40;0.30;;;19.10;48.20;;;;;;6146479;28;20031;-67
2022/02/08 22:31:08;;;;;;;0.52;0.47;;;19.10;48.20;;;;;;6146634;28;20421;-66
2022/02/08 22:34:14;;;;;;;0.25;0.25;;;19.10;48.20;;;;;;6164122;28;20114;-67
2022/02/08 22:37:25;;;;;;;0.30;0.30;;;19.10;48.20;;;;;;6169650;28;20038;-67
2022/02/08 22:40:29;;;;;;;0.63;0.20;;;19.10;48.20;;;;;;6170282;28;20057;-67
2022/02/08 22:43:35;;;;;;;0.20;0.20;;;19.10;48.20;;;;;;6147529;28;20030;-67
2022/02/08 22:46:36;;;;;;;0.63;0.38;;;19.10;48.20;;;;;;6146018;29;20038;-67
2022/02/08 22:49:37;;;;;;;0.40;0.28;;;19.10;48.20;;;;;;6146587;29;20082;-65
2022/02/08 22:52:38;;;;;;;0.22;0.20;;;19.10;48.20;;;;;;6146632;29;20493;-67
2022/02/08 22:55:38;;;;;;;1.00;0.40;;;19.10;48.20;;;;;;6145928;29;20059;-67
2022/02/08 22:58:39;;;;;;;0.30;0.30;;;19.10;48.30;;;;;;6146130;29;20689;-67
2022/02/08 23:01:41;;;;;;;0.32;0.20;;;19.10;48.30;;;;;;6146209;29;20031;-67
2022/02/08 23:04:45;;;;;;;0.20;0.20;;;19.10;48.20;;;;;;6145852;29;20142;-67
2022/02/08 23:07:45;;;;;;;0.20;0.20;;;19.10;48.30;;;;;;6165285;28;20438;-67
2022/02/08 23:11:08;;;;;;;0.20;0.17;;;19.10;48.30;;;;;;6170052;28;20042;-67
2022/02/08 23:14:10;;;;;;;0.20;0.20;;;19.10;48.30;;;;;;6169352;28;20042;-67
2022/02/08 23:36:55;;;;;;;0.28;0.20;;;19.10;48.30;;;;;;6169497;28;20101;-67
2022/02/08 23:37:10;;;;;;;0.30;0.25;;;19.10;48.30;;;;;;6145602;29;20035;-67
2022/02/08 23:40:11;;;;;;;0.45;0.28;;;19.10;48.40;;;;;;6145865;28;20023;-67
2022/02/08 23:43:14;;;;;;;0.20;0.20;;;19.10;48.30;;;;;;6145369;28;20659;-67
2022/02/08 23:46:16;;;;;;;0.30;0.30;;;19.10;48.30;;;;;;6146198;28;20553;-67
2022/02/08 23:52:26;;;;;;;0.10;0.10;;;19.10;48.30;;;;;;6150296;29;20025;-67
2022/02/08 23:55:36;;;;;;;0.20;0.20;;;19.10;48.40;;;;;;6150034;29;20491;-67
2022/02/08 23:58:48;;;;;;;0.30;0.30;;;19.10;48.40;;;;;;6150227;29;20035;-67
